Time;durP1;ratioP1;P1;durP2;ratioP2;P2;SDS_P1;SDS_P2;PMS_P1;PMS_P2;Temp;Humidity;BMP_temperature;BMP_pressure;BME280_temperature;BME280_humidity;BME280_pressure;Samples;Min_cycle;Max_cycle;Signal;HPM_P1;HPM_P2
2023/09/09 00:00:35;;;;;;;7.65;2.80;;;;;;;;;;5011695;28;20126;-65
2023/09/09 00:03:02;;;;;;;12.60;3.08;;;;;;;;;;4998817;28;20121;-66
2023/09/09 00:05:33;;;;;;;7.38;3.17;;;;;;;;;;4984459;28;20576;-64
2023/09/09 00:08:00;;;;;;;8.55;3.72;;;;;;;;;;4994194;28;20049;-65
2023/09/09 00:10:26;;;;;;;6.03;2.95;;;;;;;;;;4983981;28;20030;-65
2023/09/09 00:12:53;;;;;;;7.50;3.10;;;;;;;;;;5000105;28;20647;-64
2023/09/09 00:15:20;;;;;;;9.10;3.30;;;;;;;;;;5000454;28;20135;-65
2023/09/09 00:17:47;;;;;;;9.93;3.20;;;;;;;;;;4995244;28;20041;-64
2023/09/09 00:20:14;;;;;;;6.97;3.08;;;;;;;;;;5013868;28;20518;-65
2023/09/09 00:22:41;;;;;;;7.65;3.30;;;;;;;;;;5002366;28;20065;-64
2023/09/09 00:25:08;;;;;;;11.02;4.10;;;;;;;;;;5017865;28;20034;-63
2023/09/09 00:27:35;;;;;;;8.65;3.20;;;;;;;;;;4982484;28;20049;-66
2023/09/09 00:30:01;;;;;;;7.10;3.20;;;;;;;;;;4991612;28;20132;-64
2023/09/09 00:32:28;;;;;;;11.02;3.47;;;;;;;;;;5010879;28;20426;-65
2023/09/09 00:34:54;;;;;;;12.50;3.58;;;;;;;;;;5001663;28;20045;-63
2023/09/09 00:37:21;;;;;;;8.93;3.92;;;;;;;;;;5003228;28;20049;-64
2023/09/09 00:39:47;;;;;;;9.05;4.05;;;;;;;;;;5002669;28;20057;-64
2023/09/09 00:42:14;;;;;;;8.98;3.55;;;;;;;;;;4998298;28;20394;-63
2023/09/09 00:44:41;;;;;;;9.10;4.25;;;;;;;;;;5012968;28;20041;-63
2023/09/09 00:47:08;;;;;;;9.63;3.90;;;;;;;;;;5014403;28;20041;-63
2023/09/09 00:49:35;;;;;;;9.25;4.32;;;;;;;;;;5014437;28;20060;-65
2023/09/09 00:52:02;;;;;;;9.43;4.50;;;;;;;;;;5013474;28;20040;-63
2023/09/09 00:54:29;;;;;;;8.82;4.13;;;;;;;;;;5012880;28;20566;-66
2023/09/09 00:56:58;;;;;;;10.68;4.90;;;;;;;;;;5012712;28;20065;-65
2023/09/09 00:59:25;;;;;;;7.80;4.78;;;;;;;;;;5003829;28;20084;-64
2023/09/09 01:01:52;;;;;;;9.27;4.70;;;;;;;;;;4990302;28;20321;-65
2023/09/09 01:04:18;;;;;;;10.05;4.85;;;;;;;;;;4991174;28;20041;-64
2023/09/09 01:06:45;;;;;;;8.52;4.90;;;;;;;;;;4983692;28;20046;-63
2023/09/09 01:09:11;;;;;;;10.57;4.90;;;;;;;;;;4994243;28;20057;-64
2023/09/09 01:11:38;;;;;;;9.15;4.85;;;;;;;;;;4993005;28;21688;-63
2023/09/09 01:14:05;;;;;;;9.50;5.28;;;;;;;;;;4992222;28;20189;-64
2023/09/09 01:16:32;;;;;;;10.10;5.15;;;;;;;;;;4992293;28;20148;-65
2023/09/09 01:18:59;;;;;;;8.40;5.07;;;;;;;;;;4977202;28;20049;-63
2023/09/09 01:21:28;;;;;;;12.10;5.47;;;;;;;;;;4959541;28;20038;-65
2023/09/09 01:23:54;;;;;;;11.98;5.85;;;;;;;;;;4976938;28;20049;-64
2023/09/09 01:26:21;;;;;;;14.77;6.30;;;;;;;;;;4979866;28;20671;-64
2023/09/09 01:28:48;;;;;;;12.30;6.57;;;;;;;;;;4991101;28;20164;-63
2023/09/09 01:31:14;;;;;;;12.43;5.50;;;;;;;;;;4981144;28;20438;-65
2023/09/09 01:33:41;;;;;;;11.95;4.93;;;;;;;;;;4987288;28;20712;-64
2023/09/09 01:36:09;;;;;;;8.90;4.97;;;;;;;;;;4977971;28;20042;-64
2023/09/09 01:38:35;;;;;;;10.05;5.22;;;;;;;;;;4992212;28;20223;-64
2023/09/09 01:41:23;;;;;;;11.68;5.40;;;;;;;;;;4991296;28;20046;-63
2023/09/09 01:43:49;;;;;;;10.13;5.25;;;;;;;;;;4948586;28;20082;-65
2023/09/09 01:46:17;;;;;;;11.50;5.72;;;;;;;;;;4954882;28;20047;-66
2023/09/09 01:48:43;;;;;;;14.75;5.40;;;;;;;;;;4941708;28;20070;-63
2023/09/09 01:51:10;;;;;;;12.15;5.28;;;;;;;;;;4952493;28;20061;-66
2023/09/09 01:53:38;;;;;;;9.82;4.90;;;;;;;;;;4942719;28;20039;-64
2023/09/09 01:56:05;;;;;;;13.52;5.03;;;;;;;;;;4957312;28;20043;-63
2023/09/09 01:58:33;;;;;;;10.80;5.05;;;;;;;;;;4952862;28;21941;-66
2023/09/09 02:01:02;;;;;;;11.65;5.38;;;;;;;;;;4955227;28;20054;-64
2023/09/09 02:03:30;;;;;;;13.65;5.43;;;;;;;;;;4957736;28;20054;-64
2023/09/09 02:05:57;;;;;;;9.57;5.25;;;;;;;;;;4943626;28;20050;-63
2023/09/09 02:08:23;;;;;;;10.10;5.38;;;;;;;;;;4960074;28;20547;-64
2023/09/09 02:10:50;;;;;;;11.70;5.53;;;;;;;;;;4961539;28;20468;-64
2023/09/09 03:04:52;;;;;;;9.05;4.40;;;;;;;;;;5048333;27;20403;-62
2023/09/09 03:07:18;;;;;;;11.90;4.00;;;;;;;;;;5029266;28;20428;-63
2023/09/09 03:09:45;;;;;;;9.38;4.22;;;;;;;;;;5046116;28;20090;-63
2023/09/09 03:12:12;;;;;;;15.95;4.60;;;;;;;;;;5045409;28;20116;-63
2023/09/09 03:14:38;;;;;;;10.65;4.35;;;;;;;;;;5047918;28;21727;-63
2023/09/09 03:17:05;;;;;;;8.18;3.78;;;;;;;;;;5016779;28;20041;-63
2023/09/09 03:19:32;;;;;;;13.38;4.00;;;;;;;;;;5021699;28;20123;-63
2023/09/09 03:21:58;;;;;;;12.48;4.00;;;;;;;;;;5046879;28;20045;-63
2023/09/09 03:24:25;;;;;;;12.23;3.90;;;;;;;;;;5024544;28;20044;-63
2023/09/09 03:26:52;;;;;;;11.90;4.10;;;;;;;;;;5046829;28;20037;-64
2023/09/09 03:29:19;;;;;;;12.98;4.15;;;;;;;;;;5032599;28;21412;-64
2023/09/09 03:31:45;;;;;;;8.75;3.67;;;;;;;;;;5045034;28;20040;-66
2023/09/09 03:34:12;;;;;;;7.35;3.88;;;;;;;;;;5045173;28;20033;-66
2023/09/09 03:36:58;;;;;;;8.85;3.80;;;;;;;;;;5013712;28;20125;-65
2023/09/09 03:39:25;;;;;;;7.70;3.70;;;;;;;;;;4995643;28;20063;-65
2023/09/09 03:41:51;;;;;;;9.15;3.97;;;;;;;;;;5013993;28;20044;-65
2023/09/09 03:44:18;;;;;;;7.78;3.88;;;;;;;;;;5013731;28;20149;-67
2023/09/09 03:46:44;;;;;;;9.27;4.10;;;;;;;;;;4996372;28;20071;-66
2023/09/09 03:49:11;;;;;;;8.65;4.25;;;;;;;;;;5013868;28;20136;-66
2023/09/09 03:51:38;;;;;;;9.82;4.53;;;;;;;;;;4993713;28;20056;-65
2023/09/09 03:54:05;;;;;;;9.38;4.55;;;;;;;;;;4996481;28;21261;-65
2023/09/09 03:56:31;;;;;;;12.20;4.68;;;;;;;;;;5003594;28;20034;-66
2023/09/09 03:58:58;;;;;;;9.32;4.72;;;;;;;;;;5013250;28;20049;-66
2023/09/09 04:01:25;;;;;;;13.05;4.85;;;;;;;;;;5010173;28;20034;-64
2023/09/09 04:03:51;;;;;;;11.70;4.93;;;;;;;;;;4996192;28;20054;-66
2023/09/09 04:06:19;;;;;;;10.85;4.05;;;;;;;;;;5012969;28;20040;-65
2023/09/09 04:08:46;;;;;;;12.05;5.05;;;;;;;;;;5012374;28;20123;-63
2023/09/09 04:11:12;;;;;;;10.52;5.05;;;;;;;;;;5013018;28;20132;-64
2023/09/09 04:13:40;;;;;;;11.30;5.50;;;;;;;;;;5020103;28;20111;-64
2023/09/09 04:16:06;;;;;;;11.40;5.00;;;;;;;;;;5032877;28;20137;-64
2023/09/09 04:18:33;;;;;;;10.90;5.53;;;;;;;;;;5032109;28;20041;-63
2023/09/09 04:21:00;;;;;;;10.77;4.85;;;;;;;;;;5032415;28;20607;-67
2023/09/09 04:23:26;;;;;;;11.45;5.10;;;;;;;;;;5032513;28;20053;-63
2023/09/09 04:25:53;;;;;;;11.00;4.75;;;;;;;;;;5032229;28;20029;-63
2023/09/09 04:28:19;;;;;;;10.80;5.07;;;;;;;;;;4997774;28;20044;-64
2023/09/09 04:30:46;;;;;;;12.18;5.28;;;;;;;;;;5002029;28;20053;-63
2023/09/09 04:33:13;;;;;;;9.77;4.80;;;;;;;;;;5031301;28;20048;-66
2023/09/09 04:35:40;;;;;;;8.63;4.68;;;;;;;;;;5032071;28;20103;-64
2023/09/09 04:38:07;;;;;;;15.02;5.50;;;;;;;;;;5032940;28;20488;-66
2023/09/09 04:40:40;;;;;;;15.60;5.05;;;;;;;;;;5014077;28;20138;-64
2023/09/09 04:43:07;;;;;;;;;;;;;;;;;;5032922;28;20279;-64
2023/09/09 04:45:33;;;;;;;9.25;4.88;;;;;;;;;;5032325;28;20019;-64
2023/09/09 04:48:00;;;;;;;10.60;5.28;;;;;;;;;;5033010;28;20192;-65
2023/09/09 04:50:27;;;;;;;14.18;5.57;;;;;;;;;;5009481;28;20401;-64
2023/09/09 04:52:53;;;;;;;16.13;7.65;;;;;;;;;;5034391;28;20126;-64
2023/09/09 04:55:20;;;;;;;23.20;10.60;;;;;;;;;;5033431;28;20572;-63
2023/09/09 04:57:47;;;;;;;21.30;11.30;;;;;;;;;;5008734;28;20398;-65
2023/09/09 05:00:13;;;;;;;20.00;10.07;;;;;;;;;;5032252;28;20067;-63
2023/09/09 05:02:40;;;;;;;21.63;10.18;;;;;;;;;;5030809;28;20092;-64
2023/09/09 05:05:07;;;;;;;19.35;9.88;;;;;;;;;;5032582;28;20398;-66
2023/09/09 05:07:37;;;;;;;17.88;8.75;;;;;;;;;;5031784;28;20041;-65
2023/09/09 05:10:04;;;;;;;23.30;7.90;;;;;;;;;;5032595;28;20041;-65
2023/09/09 05:12:32;;;;;;;16.08;6.90;;;;;;;;;;5029532;28;20095;-65
2023/09/09 05:14:58;;;;;;;14.57;7.25;;;;;;;;;;5032131;28;20052;-64
2023/09/09 05:17:25;;;;;;;13.48;6.20;;;;;;;;;;5004944;28;20037;-65
2023/09/09 05:19:52;;;;;;;11.68;5.95;;;;;;;;;;5032818;28;20424;-64
2023/09/09 05:22:18;;;;;;;13.48;6.43;;;;;;;;;;5032448;28;20094;-64
2023/09/09 05:24:45;;;;;;;12.10;6.47;;;;;;;;;;5031165;28;20370;-65
2023/09/09 05:27:12;;;;;;;15.32;6.25;;;;;;;;;;5031471;28;20540;-63
2023/09/09 05:29:38;;;;;;;13.85;6.45;;;;;;;;;;5030456;28;20541;-63
2023/09/09 05:32:05;;;;;;;12.15;5.85;;;;;;;;;;5031245;28;20048;-64
2023/09/09 05:34:32;;;;;;;10.40;5.43;;;;;;;;;;5029000;28;20130;-64
2023/09/09 05:36:58;;;;;;;12.65;6.15;;;;;;;;;;5031367;28;20521;-64
2023/09/09 05:39:25;;;;;;;12.32;6.28;;;;;;;;;;5030991;28;20075;-64
2023/09/09 05:41:51;;;;;;;12.30;5.72;;;;;;;;;;5012084;28;20091;-63
2023/09/09 05:44:18;;;;;;;11.43;5.80;;;;;;;;;;5030652;28;20578;-64
2023/09/09 05:46:45;;;;;;;13.35;6.78;;;;;;;;;;5030036;28;20064;-63
2023/09/09 05:49:11;;;;;;;14.48;6.63;;;;;;;;;;5020041;28;20706;-64
2023/09/09 05:51:38;;;;;;;15.80;6.97;;;;;;;;;;5028743;28;20206;-64
2023/09/09 05:54:04;;;;;;;13.40;6.63;;;;;;;;;;5030807;28;20029;-63
2023/09/09 05:56:51;;;;;;;16.13;6.57;;;;;;;;;;4987588;28;20575;-64
2023/09/09 05:59:17;;;;;;;13.52;6.53;;;;;;;;;;4987736;28;21479;-64
2023/09/09 06:01:44;;;;;;;13.43;6.25;;;;;;;;;;4986533;28;20670;-63
2023/09/09 06:04:11;;;;;;;11.57;6.53;;;;;;;;;;4986393;28;20052;-64
2023/09/09 06:06:37;;;;;;;13.88;6.35;;;;;;;;;;4986290;28;20041;-64
2023/09/09 06:09:04;;;;;;;12.30;6.50;;;;;;;;;;5004324;28;20582;-63
2023/09/09 06:11:31;;;;;;;12.18;6.20;;;;;;;;;;4986117;28;20636;-62
2023/09/09 06:13:57;;;;;;;14.68;6.53;;;;;;;;;;4988641;28;20100;-64
2023/09/09 06:16:24;;;;;;;13.10;6.82;;;;;;;;;;4986481;28;20048;-64
2023/09/09 06:18:51;;;;;;;11.63;5.90;;;;;;;;;;4987983;28;20042;-64
2023/09/09 06:21:17;;;;;;;12.00;6.40;;;;;;;;;;4987706;28;20042;-64
2023/09/09 06:23:44;;;;;;;13.73;6.82;;;;;;;;;;4986900;28;20521;-63
2023/09/09 06:26:10;;;;;;;13.70;6.28;;;;;;;;;;4987800;28;20042;-63
2023/09/09 06:28:39;;;;;;;13.77;6.38;;;;;;;;;;4986150;28;20109;-65
2023/09/09 06:31:07;;;;;;;12.45;6.60;;;;;;;;;;4988386;28;20086;-63
2023/09/09 06:33:34;;;;;;;11.55;5.75;;;;;;;;;;4994963;28;20033;-63
2023/09/09 06:36:01;;;;;;;12.13;6.13;;;;;;;;;;5021090;28;20405;-63
2023/09/09 06:38:27;;;;;;;11.60;6.13;;;;;;;;;;5031184;28;20432;-63
2023/09/09 06:40:54;;;;;;;12.23;6.20;;;;;;;;;;5031139;28;20041;-64
2023/09/09 06:43:21;;;;;;;10.88;5.68;;;;;;;;;;5032228;28;20060;-63
2023/09/09 06:45:48;;;;;;;12.85;5.90;;;;;;;;;;5029915;28;20507;-64
2023/09/09 06:48:18;;;;;;;11.88;5.80;;;;;;;;;;5032029;28;20528;-64
2023/09/09 06:50:45;;;;;;;11.60;5.43;;;;;;;;;;5030825;28;21464;-64
2023/09/09 06:53:12;;;;;;;15.20;5.88;;;;;;;;;;5030999;28;20045;-63
2023/09/09 06:55:39;;;;;;;17.17;5.55;;;;;;;;;;5029732;28;20140;-63
2023/09/09 06:58:06;;;;;;;11.25;5.03;;;;;;;;;;5030823;28;20751;-63
2023/09/09 07:00:33;;;;;;;11.38;5.25;;;;;;;;;;5030656;28;20694;-64
2023/09/09 07:03:00;;;;;;;14.60;5.70;;;;;;;;;;5030159;28;20925;-65
2023/09/09 07:05:27;;;;;;;10.43;5.53;;;;;;;;;;5029833;28;20094;-65
2023/09/09 07:07:53;;;;;;;11.50;5.18;;;;;;;;;;5030093;28;20401;-63
2023/09/09 07:10:20;;;;;;;11.05;5.28;;;;;;;;;;5031006;28;20041;-64
2023/09/09 07:12:49;;;;;;;11.07;5.03;;;;;;;;;;5030475;28;20041;-63
2023/09/09 07:15:16;;;;;;;12.32;5.90;;;;;;;;;;5029881;28;20025;-63
2023/09/09 07:17:49;;;;;;;10.15;5.47;;;;;;;;;;5030033;28;20110;-64
2023/09/09 07:20:18;;;;;;;;;;;;;;;;;;5031052;28;20087;-63
2023/09/09 07:22:44;;;;;;;12.30;5.60;;;;;;;;;;5029218;28;19916;-63
2023/09/09 07:25:11;;;;;;;14.70;6.30;;;;;;;;;;5030554;28;20399;-64
2023/09/09 07:27:38;;;;;;;11.50;6.45;;;;;;;;;;5029890;28;20063;-65
2023/09/09 07:30:05;;;;;;;14.50;6.13;;;;;;;;;;5013350;28;21061;-64
2023/09/09 07:32:32;;;;;;;12.23;5.78;;;;;;;;;;5028535;28;20637;-64
2023/09/09 07:35:02;;;;;;;9.35;4.97;;;;;;;;;;5030410;28;20393;-64
2023/09/09 07:37:29;;;;;;;10.82;6.00;;;;;;;;;;5029995;28;20133;-65
2023/09/09 07:39:58;;;;;;;14.43;5.78;;;;;;;;;;5030480;28;20040;-64
2023/09/09 07:42:25;;;;;;;9.60;5.50;;;;;;;;;;5028127;28;20044;-63
2023/09/09 07:44:53;;;;;;;11.30;5.60;;;;;;;;;;5030258;28;20047;-64
2023/09/09 07:47:20;;;;;;;12.57;5.57;;;;;;;;;;5030504;28;20033;-64
2023/09/09 07:49:47;;;;;;;14.38;6.32;;;;;;;;;;5030710;28;20159;-63
2023/09/09 07:52:14;;;;;;;11.93;5.88;;;;;;;;;;5033783;28;20454;-64
2023/09/09 07:54:40;;;;;;;11.07;5.60;;;;;;;;;;5031490;28;20098;-64
2023/09/09 07:57:07;;;;;;;9.77;5.32;;;;;;;;;;5009664;28;20469;-65
2023/09/09 07:59:34;;;;;;;9.90;5.93;;;;;;;;;;5033645;28;20064;-65
2023/09/09 08:02:02;;;;;;;10.70;5.45;;;;;;;;;;5033595;28;20052;-66
2023/09/09 08:04:29;;;;;;;14.18;6.40;;;;;;;;;;5032356;28;20049;-65
2023/09/09 08:06:55;;;;;;;12.77;6.38;;;;;;;;;;5033257;28;20048;-65
2023/09/09 08:09:22;;;;;;;11.50;6.03;;;;;;;;;;5034370;28;21381;-65
2023/09/09 08:11:49;;;;;;;13.43;6.65;;;;;;;;;;5032811;28;20048;-65
2023/09/09 08:14:16;;;;;;;17.85;6.43;;;;;;;;;;5034248;28;20300;-65
2023/09/09 08:16:43;;;;;;;14.65;6.45;;;;;;;;;;5033187;28;20569;-65
2023/09/09 08:19:09;;;;;;;11.38;6.32;;;;;;;;;;5032365;28;20486;-65
2023/09/09 08:21:36;;;;;;;14.05;6.50;;;;;;;;;;5005846;28;20037;-65
2023/09/09 08:24:03;;;;;;;13.95;6.32;;;;;;;;;;5031435;28;20162;-65
2023/09/09 08:26:29;;;;;;;11.57;6.45;;;;;;;;;;5031646;28;20033;-65
2023/09/09 08:28:56;;;;;;;12.93;6.47;;;;;;;;;;5031735;28;20155;-64
2023/09/09 08:31:23;;;;;;;16.40;7.15;;;;;;;;;;5031286;28;20028;-64
2023/09/09 08:34:09;;;;;;;12.15;6.60;;;;;;;;;;5005138;28;20538;-65
2023/09/09 08:36:36;;;;;;;12.02;6.63;;;;;;;;;;4993411;28;20072;-66
2023/09/09 08:39:02;;;;;;;12.85;6.90;;;;;;;;;;5006428;28;21555;-65
2023/09/09 08:41:49;;;;;;;13.75;7.03;;;;;;;;;;5005149;28;20046;-64
2023/09/09 08:44:36;;;;;;;12.48;6.97;;;;;;;;;;5006850;28;20149;-65
2023/09/09 08:47:02;;;;;;;14.77;6.57;;;;;;;;;;4940360;28;20640;-66
2023/09/09 08:49:31;;;;;;;16.20;7.95;;;;;;;;;;5004651;28;20069;-63
2023/09/09 08:52:05;;;;;;;14.18;7.53;;;;;;;;;;4986576;28;20128;-64
2023/09/09 08:54:32;;;;;;;18.65;7.72;;;;;;;;;;5004985;28;20091;-65
2023/09/09 08:57:00;;;;;;;18.83;7.90;;;;;;;;;;4988635;28;20041;-64
2023/09/09 08:59:28;;;;;;;15.77;7.57;;;;;;;;;;5005524;28;20634;-63
2023/09/09 09:01:56;;;;;;;14.55;7.55;;;;;;;;;;5006767;28;20875;-64
2023/09/09 09:04:22;;;;;;;15.27;7.68;;;;;;;;;;5005728;28;20053;-63
2023/09/09 09:06:49;;;;;;;15.65;8.60;;;;;;;;;;5007775;28;20041;-65
2023/09/09 09:09:16;;;;;;;14.73;7.78;;;;;;;;;;5006181;28;21055;-64
2023/09/09 09:11:44;;;;;;;17.58;8.30;;;;;;;;;;4997812;28;20037;-64
2023/09/09 09:14:10;;;;;;;16.02;8.30;;;;;;;;;;5014302;28;20048;-65
2023/09/09 09:16:40;;;;;;;14.25;7.75;;;;;;;;;;5009376;28;20468;-63
2023/09/09 09:19:15;;;;;;;16.17;7.75;;;;;;;;;;5013778;28;20055;-64
2023/09/09 09:21:42;;;;;;;14.85;7.80;;;;;;;;;;5012714;28;20136;-64
2023/09/09 09:24:08;;;;;;;13.30;7.22;;;;;;;;;;5012431;28;20076;-64
2023/09/09 09:26:35;;;;;;;15.50;7.95;;;;;;;;;;5019387;28;20040;-63
2023/09/09 09:29:05;;;;;;;17.17;7.60;;;;;;;;;;5024610;28;20490;-63
2023/09/09 09:31:32;;;;;;;18.85;7.82;;;;;;;;;;5010593;28;20132;-64
2023/09/09 09:33:59;;;;;;;15.70;7.90;;;;;;;;;;5016216;28;20646;-64
2023/09/09 09:36:27;;;;;;;14.35;8.10;;;;;;;;;;5016501;28;20050;-66
2023/09/09 09:38:55;;;;;;;15.50;8.25;;;;;;;;;;5011528;28;20080;-65
2023/09/09 09:41:22;;;;;;;16.40;8.25;;;;;;;;;;5010984;28;20502;-64
2023/09/09 09:43:49;;;;;;;15.48;8.13;;;;;;;;;;5018042;28;20049;-64
2023/09/09 09:46:20;;;;;;;15.18;8.18;;;;;;;;;;5010921;28;20037;-65
2023/09/09 09:48:47;;;;;;;15.20;8.52;;;;;;;;;;5015064;28;20037;-64
2023/09/09 09:51:13;;;;;;;17.13;8.18;;;;;;;;;;5005920;28;20037;-64
2023/09/09 09:53:49;;;;;;;17.45;8.70;;;;;;;;;;5010430;28;20041;-64
2023/09/09 09:56:17;;;;;;;17.40;9.10;;;;;;;;;;5012621;28;20743;-64
2023/09/09 09:58:44;;;;;;;15.30;8.95;;;;;;;;;;5011518;28;20461;-64
2023/09/09 10:01:11;;;;;;;21.85;9.20;;;;;;;;;;5012183;28;20612;-65
2023/09/09 10:03:47;;;;;;;17.80;9.30;;;;;;;;;;5020345;28;20102;-65
2023/09/09 10:06:16;;;;;;;19.10;8.90;;;;;;;;;;5028666;28;20134;-64
2023/09/09 10:08:46;;;;;;;18.10;9.75;;;;;;;;;;5030506;28;20044;-64
2023/09/09 10:11:15;;;;;;;17.42;10.10;;;;;;;;;;5031877;28;20124;-65
2023/09/09 10:13:44;;;;;;;21.08;10.00;;;;;;;;;;5027506;28;20503;-65
2023/09/09 10:16:12;;;;;;;21.33;9.52;;;;;;;;;;5012491;28;20258;-65
2023/09/09 10:18:39;;;;;;;21.40;9.30;;;;;;;;;;5030142;28;20037;-65
2023/09/09 10:21:06;;;;;;;19.55;9.85;;;;;;;;;;5031479;28;20048;-65
2023/09/09 10:23:33;;;;;;;18.60;9.73;;;;;;;;;;5011278;28;20580;-65
2023/09/09 10:26:00;;;;;;;21.08;9.65;;;;;;;;;;5025573;28;20123;-66
2023/09/09 10:28:27;;;;;;;20.85;10.38;;;;;;;;;;5018390;28;20533;-65
2023/09/09 10:30:54;;;;;;;17.92;9.50;;;;;;;;;;5030479;28;20044;-64
2023/09/09 10:33:21;;;;;;;20.42;9.27;;;;;;;;;;5031046;28;20163;-65
2023/09/09 10:35:52;;;;;;;19.45;9.88;;;;;;;;;;5029988;28;20044;-65
2023/09/09 10:38:19;;;;;;;21.52;10.18;;;;;;;;;;5030708;28;20564;-65
2023/09/09 10:40:48;;;;;;;22.23;10.07;;;;;;;;;;5030702;28;20053;-66
2023/09/09 10:43:33;;;;;;;20.33;9.82;;;;;;;;;;4980682;28;20188;-64
2023/09/09 10:46:00;;;;;;;19.40;10.55;;;;;;;;;;4980994;28;20391;-64
2023/09/09 10:48:27;;;;;;;21.00;10.32;;;;;;;;;;4979320;28;20046;-63
2023/09/09 10:50:54;;;;;;;20.73;10.05;;;;;;;;;;4981870;28;20049;-65
2023/09/09 10:53:28;;;;;;;21.15;10.65;;;;;;;;;;4980777;28;20522;-67
2023/09/09 10:55:56;;;;;;;18.30;10.00;;;;;;;;;;4980451;28;20042;-67
2023/09/09 10:58:31;;;;;;;19.42;10.40;;;;;;;;;;4969183;28;20063;-65
2023/09/09 11:00:59;;;;;;;18.83;9.98;;;;;;;;;;4980856;28;20578;-65
2023/09/09 11:03:29;;;;;;;19.63;10.18;;;;;;;;;;4980153;28;20124;-64
2023/09/09 11:06:02;;;;;;;17.92;9.50;;;;;;;;;;4980705;28;20616;-65
2023/09/09 11:08:29;;;;;;;;;;;;;;;;;;4980753;28;20096;-65
2023/09/09 11:11:08;;;;;;;18.60;9.85;;;;;;;;;;4980568;28;20414;-64
2023/09/09 11:13:58;;;;;;;21.27;9.68;;;;;;;;;;4980268;28;20085;-63
2023/09/09 11:16:24;;;;;;;18.02;9.57;;;;;;;;;;4977815;28;20606;-65
2023/09/09 11:18:55;;;;;;;22.70;10.98;;;;;;;;;;4982060;28;20061;-65
2023/09/09 11:21:25;;;;;;;18.90;10.32;;;;;;;;;;5010882;28;20419;-64
2023/09/09 11:23:52;;;;;;;18.70;10.30;;;;;;;;;;5028178;28;20048;-64
2023/09/09 11:26:19;;;;;;;17.75;9.77;;;;;;;;;;5030442;28;20447;-64
2023/09/09 11:28:47;;;;;;;18.90;10.23;;;;;;;;;;5032513;28;20049;-63
2023/09/09 11:31:14;;;;;;;20.05;10.23;;;;;;;;;;5034448;28;20082;-64
2023/09/09 11:33:41;;;;;;;21.23;10.38;;;;;;;;;;5032536;28;20056;-64
2023/09/09 11:36:08;;;;;;;20.42;10.88;;;;;;;;;;5033055;28;20521;-64
2023/09/09 11:38:35;;;;;;;19.77;9.77;;;;;;;;;;5033900;28;20076;-65
2023/09/09 11:41:02;;;;;;;22.95;10.32;;;;;;;;;;5012544;28;20039;-64
2023/09/09 11:43:29;;;;;;;20.67;10.63;;;;;;;;;;5032834;28;20056;-65
2023/09/09 11:45:56;;;;;;;23.00;11.38;;;;;;;;;;5032609;28;20051;-64
2023/09/09 11:48:26;;;;;;;19.70;10.82;;;;;;;;;;5032377;28;20774;-65
2023/09/09 11:50:53;;;;;;;21.50;10.85;;;;;;;;;;5029421;28;20609;-64
2023/09/09 11:53:20;;;;;;;22.77;10.30;;;;;;;;;;5024920;28;20084;-64
2023/09/09 11:55:52;;;;;;;17.17;10.00;;;;;;;;;;5032388;28;20041;-64
2023/09/09 11:58:18;;;;;;;19.60;10.38;;;;;;;;;;5034294;28;20045;-64
2023/09/09 12:00:45;;;;;;;21.08;11.10;;;;;;;;;;5033374;28;20053;-64
2023/09/09 12:03:19;;;;;;;23.55;11.05;;;;;;;;;;5003947;28;20061;-65
2023/09/09 12:05:46;;;;;;;21.27;10.80;;;;;;;;;;5012162;28;20386;-65
2023/09/09 12:08:14;;;;;;;20.67;10.40;;;;;;;;;;5003069;28;20041;-64
2023/09/09 12:10:41;;;;;;;19.45;10.90;;;;;;;;;;4992069;28;20180;-65
2023/09/09 12:13:27;;;;;;;18.60;9.88;;;;;;;;;;4975812;28;20507;-64
2023/09/09 12:15:55;;;;;;;20.33;10.65;;;;;;;;;;4979250;28;20193;-65
2023/09/09 12:18:22;;;;;;;21.15;10.88;;;;;;;;;;4965243;28;20038;-68
2023/09/09 12:21:07;;;;;;;23.95;11.57;;;;;;;;;;4964809;28;20170;-65
2023/09/09 12:23:34;;;;;;;23.08;11.35;;;;;;;;;;4978231;28;20773;-64
2023/09/09 12:26:07;;;;;;;19.63;10.40;;;;;;;;;;4965802;28;20038;-65
2023/09/09 12:28:36;;;;;;;21.42;10.77;;;;;;;;;;4973124;28;20042;-63
2023/09/09 12:31:03;;;;;;;21.15;11.20;;;;;;;;;;4976505;28;20046;-65
2023/09/09 12:33:37;;;;;;;19.02;10.48;;;;;;;;;;4977643;28;20041;-65
2023/09/09 12:36:04;;;;;;;22.35;10.70;;;;;;;;;;4977826;28;20062;-67
2023/09/09 12:38:38;;;;;;;19.90;10.05;;;;;;;;;;4978204;28;22181;-64
2023/09/09 12:41:06;;;;;;;20.52;10.52;;;;;;;;;;4978447;28;20432;-64
2023/09/09 12:43:33;;;;;;;19.17;10.98;;;;;;;;;;4979709;28;20054;-64
2023/09/09 12:46:07;;;;;;;21.70;11.05;;;;;;;;;;5011794;28;20080;-64
2023/09/09 12:48:56;;;;;;;21.95;10.45;;;;;;;;;;5011720;28;20044;-64
2023/09/09 12:51:24;;;;;;;21.98;10.77;;;;;;;;;;5011761;28;20604;-64
2023/09/09 12:53:54;;;;;;;20.27;10.55;;;;;;;;;;5012513;28;20045;-64
2023/09/09 12:56:20;;;;;;;20.20;10.82;;;;;;;;;;5011961;28;20573;-64
2023/09/09 12:58:47;;;;;;;24.98;12.15;;;;;;;;;;5010349;28;20042;-64
2023/09/09 13:01:15;;;;;;;21.98;11.40;;;;;;;;;;5012335;28;20033;-63
2023/09/09 13:03:41;;;;;;;26.15;11.55;;;;;;;;;;5022273;28;21361;-64
2023/09/09 13:06:08;;;;;;;22.23;10.70;;;;;;;;;;5029954;28;20048;-64
2023/09/09 13:08:35;;;;;;;22.52;11.15;;;;;;;;;;5030832;28;20045;-63
2023/09/09 13:11:02;;;;;;;23.58;11.68;;;;;;;;;;4999731;28;20117;-65
2023/09/09 13:13:29;;;;;;;21.05;10.82;;;;;;;;;;5028654;28;20040;-64
2023/09/09 13:15:56;;;;;;;19.85;11.18;;;;;;;;;;5030812;28;20033;-62
2023/09/09 13:18:23;;;;;;;26.10;11.40;;;;;;;;;;5031527;28;20033;-63
2023/09/09 13:20:49;;;;;;;19.77;10.20;;;;;;;;;;5030743;28;20452;-63
2023/09/09 13:23:16;;;;;;;23.65;10.25;;;;;;;;;;5031825;28;20057;-64
2023/09/09 13:25:43;;;;;;;20.95;10.48;;;;;;;;;;5028437;28;20052;-64
2023/09/09 13:28:10;;;;;;;21.27;9.77;;;;;;;;;;5031656;28;20440;-62
2023/09/09 13:30:36;;;;;;;23.60;11.23;;;;;;;;;;5026576;28;20045;-64
2023/09/09 13:33:24;;;;;;;20.20;10.60;;;;;;;;;;5029806;28;20045;-64
2023/09/09 13:35:51;;;;;;;20.88;10.38;;;;;;;;;;5028557;28;20037;-64
2023/09/09 13:38:17;;;;;;;21.50;11.30;;;;;;;;;;5005565;28;20060;-64
2023/09/09 13:40:44;;;;;;;23.20;11.40;;;;;;;;;;5026297;28;20072;-64
2023/09/09 13:43:11;;;;;;;21.63;11.60;;;;;;;;;;5029652;28;20429;-65
2023/09/09 13:45:37;;;;;;;22.15;11.60;;;;;;;;;;5027923;28;20041;-64
2023/09/09 13:48:04;;;;;;;26.67;11.75;;;;;;;;;;5028190;28;20033;-65
2023/09/09 13:50:31;;;;;;;21.70;11.65;;;;;;;;;;5010667;28;20195;-65
2023/09/09 13:52:58;;;;;;;25.92;11.40;;;;;;;;;;5028646;28;20063;-63
2023/09/09 13:55:24;;;;;;;25.52;11.82;;;;;;;;;;5026722;28;20604;-63
2023/09/09 13:58:10;;;;;;;22.02;12.13;;;;;;;;;;5006861;28;20033;-64
2023/09/09 14:00:37;;;;;;;24.48;12.52;;;;;;;;;;5006295;28;20137;-63
2023/09/09 14:03:04;;;;;;;23.60;11.57;;;;;;;;;;5005188;28;20072;-62
2023/09/09 14:05:31;;;;;;;28.98;11.68;;;;;;;;;;4971067;28;20092;-63
2023/09/09 14:07:57;;;;;;;23.20;11.18;;;;;;;;;;4987605;28;20108;-62
2023/09/09 14:10:24;;;;;;;23.13;11.45;;;;;;;;;;4988693;28;22072;-64
2023/09/09 14:12:50;;;;;;;25.15;11.38;;;;;;;;;;4983291;28;20046;-64
2023/09/09 14:15:17;;;;;;;24.45;12.30;;;;;;;;;;4988530;28;20046;-67
2023/09/09 14:17:44;;;;;;;29.33;15.98;;;;;;;;;;4988172;28;20042;-65
2023/09/09 14:20:11;;;;;;;22.10;14.25;;;;;;;;;;4971512;28;20081;-64
2023/09/09 14:22:37;;;;;;;21.90;13.52;;;;;;;;;;4984022;28;20034;-63
2023/09/09 14:25:04;;;;;;;21.55;11.65;;;;;;;;;;5002948;28;20045;-62
2023/09/09 14:27:31;;;;;;;19.83;11.68;;;;;;;;;;4970248;28;20045;-63
2023/09/09 14:29:57;;;;;;;19.33;10.43;;;;;;;;;;4972188;28;20057;-64
2023/09/09 14:32:24;;;;;;;23.90;13.68;;;;;;;;;;4985654;28;20282;-64
2023/09/09 14:34:51;;;;;;;18.70;11.25;;;;;;;;;;5007008;28;20401;-66
2023/09/09 14:37:17;;;;;;;22.95;10.65;;;;;;;;;;4998568;28;20384;-65
2023/09/09 14:39:44;;;;;;;19.25;10.45;;;;;;;;;;4996951;28;20605;-66
2023/09/09 14:42:10;;;;;;;18.23;9.48;;;;;;;;;;4990554;28;20541;-65
2023/09/09 14:44:37;;;;;;;17.05;9.25;;;;;;;;;;4994778;28;20480;-67
2023/09/09 14:47:04;;;;;;;23.48;13.20;;;;;;;;;;4990618;28;20091;-63
2023/09/09 14:49:32;;;;;;;20.05;9.55;;;;;;;;;;4990797;28;20065;-63
2023/09/09 14:51:58;;;;;;;15.02;8.05;;;;;;;;;;4997238;28;20038;-65
2023/09/09 14:54:26;;;;;;;20.58;9.00;;;;;;;;;;4989644;28;20030;-65
2023/09/09 14:56:53;;;;;;;14.30;8.10;;;;;;;;;;4990986;28;20058;-65
2023/09/09 14:59:20;;;;;;;15.23;7.10;;;;;;;;;;4992524;28;20030;-65
2023/09/09 15:01:46;;;;;;;16.15;7.20;;;;;;;;;;5012840;28;20120;-63
2023/09/09 15:04:13;;;;;;;13.88;6.72;;;;;;;;;;4994269;28;21119;-62
2023/09/09 15:06:39;;;;;;;15.30;7.00;;;;;;;;;;4990991;28;20041;-63
2023/09/09 15:09:06;;;;;;;10.25;5.88;;;;;;;;;;5000728;28;22097;-63
2023/09/09 15:11:33;;;;;;;12.98;6.53;;;;;;;;;;4991029;28;20058;-64
2023/09/09 15:13:59;;;;;;;11.65;6.68;;;;;;;;;;4992276;28;20040;-66
2023/09/09 15:16:44;;;;;;;11.25;6.15;;;;;;;;;;4994261;28;20073;-64
2023/09/09 15:19:10;;;;;;;10.13;5.55;;;;;;;;;;5021944;28;20493;-64
2023/09/09 15:21:37;;;;;;;11.52;5.75;;;;;;;;;;5000068;28;20232;-65
2023/09/09 15:24:04;;;;;;;11.15;5.55;;;;;;;;;;5006136;28;20118;-65